Time,TemperatureF,DewpointF,PressureIn,WindDirection,WindDirectionDegrees,WindSpeedMPH,WindSpeedGustMPH,Humidity,HourlyPrecipIn,Conditions,Clouds,dailyrainin,SolarRadiationWatts/m^2,SoftwareType,DateUTC
2013-11-13 00:13:00,78.0,70.0,-100.00,NE,41,7.0,13.0,77,0.00,,,0.00,0.000000,,2013-11-13 05:13:00,
2013-11-13 00:23:00,78.0,70.0,-100.00,NE,41,7.0,13.0,77,0.00,,,0.00,0.000000,,2013-11-13 05:23:00,
2013-11-13 00:33:00,78.0,70.0,-100.00,NE,41,7.0,13.0,77,0.00,,,0.00,0.000000,,2013-11-13 05:33:00,
2013-11-13 01:13:00,78.0,68.0,-100.00,NE,38,7.0,14.0,72,0.00,,,0.00,0.000000,,2013-11-13 06:13:00,
2013-11-13 01:23:00,78.0,68.0,-100.00,NE,38,7.0,14.0,72,0.00,,,0.00,0.000000,,2013-11-13 06:23:00,
2013-11-13 01:32:00,78.0,68.0,-100.00,NE,38,7.0,14.0,72,0.00,,,0.00,0.000000,,2013-11-13 06:32:00,
2013-11-13 02:11:00,77.0,68.0,-100.00,NNE,28,7.0,14.0,74,0.00,,,0.00,0.000000,,2013-11-13 07:11:00,
2013-11-13 02:22:00,77.0,68.0,-100.00,NNE,28,7.0,14.0,74,0.00,,,0.00,0.000000,,2013-11-13 07:22:00,
2013-11-13 02:32:00,77.0,68.0,-100.00,NNE,28,7.0,14.0,74,0.00,,,0.00,0.000000,,2013-11-13 07:32:00,
2013-11-13 03:12:00,77.0,67.0,-100.00,NE,37,7.0,14.0,72,0.00,,,0.00,0.000000,,2013-11-13 08:12:00,
2013-11-13 03:22:00,77.0,67.0,-100.00,NE,37,7.0,14.0,72,0.00,,,0.00,0.000000,,2013-11-13 08:22:00,
2013-11-13 03:32:00,77.0,67.0,-100.00,NE,37,7.0,14.0,72,0.00,,,0.00,0.000000,,2013-11-13 08:32:00,
2013-11-13 04:11:00,77.0,68.0,-100.00,NE,38,7.0,14.0,74,0.00,,,0.00,0.000000,,2013-11-13 09:11:00,
2013-11-13 04:22:00,77.0,68.0,-100.00,NE,38,7.0,14.0,74,0.00,,,0.00,0.000000,,2013-11-13 09:22:00,
2013-11-13 04:33:00,77.0,68.0,-100.00,NE,38,7.0,14.0,74,0.00,,,0.00,0.000000,,2013-11-13 09:33:00,
2013-11-13 05:13:00,75.0,68.0,-100.00,NNE,24,8.0,15.0,79,0.00,,,0.00,0.000000,,2013-11-13 10:13:00,
2013-11-13 05:23:00,75.0,68.0,-100.00,NNE,24,8.0,15.0,79,0.00,,,0.00,0.000000,,2013-11-13 10:23:00,
2013-11-13 05:33:00,75.0,68.0,-100.00,NNE,24,8.0,15.0,79,0.00,,,0.00,0.000000,,2013-11-13 10:33:00,
2013-11-13 06:12:00,75.0,67.0,-100.00,NNE,30,9.0,18.0,76,0.00,,,0.00,0.000000,,2013-11-13 11:12:00,
2013-11-13 06:22:00,75.0,67.0,-100.00,NNE,30,9.0,18.0,76,0.00,,,0.00,0.000000,,2013-11-13 11:22:00,
2013-11-13 06:33:00,75.0,67.0,-100.00,NNE,30,9.0,18.0,76,0.00,,,0.00,0.000000,,2013-11-13 11:33:00,
2013-11-13 07:12:00,74.0,65.0,-100.00,NNE,33,10.0,19.0,74,0.00,,,-99.99,0.000000,,2013-11-13 12:12:00,
2013-11-13 07:22:00,74.0,65.0,-100.00,NNE,33,10.0,19.0,74,0.00,,,-99.99,0.000000,,2013-11-13 12:22:00,
2013-11-13 07:32:00,74.0,65.0,-100.00,NNE,33,10.0,19.0,74,0.00,,,-99.99,0.000000,,2013-11-13 12:32:00,
2013-11-13 08:11:00,74.0,64.0,-100.00,NE,34,11.0,20.0,72,0.00,,,0.00,38.000000,,2013-11-13 13:11:00,
2013-11-13 08:22:00,74.0,64.0,-100.00,NE,34,11.0,20.0,72,0.00,,,0.00,38.000000,,2013-11-13 13:22:00,
2013-11-13 08:32:00,74.0,64.0,-100.00,NE,34,11.0,20.0,72,0.00,,,0.00,38.000000,,2013-11-13 13:32:00,
2013-11-13 09:11:00,76.0,64.0,-100.00,NNE,33,10.0,20.0,67,0.00,,,0.00,243.000000,,2013-11-13 14:11:00,
2013-11-13 09:22:00,76.0,64.0,-100.00,NNE,33,10.0,20.0,67,0.00,,,0.00,243.000000,,2013-11-13 14:22:00,
2013-11-13 09:32:00,76.0,64.0,-100.00,NNE,33,10.0,20.0,67,0.00,,,0.00,243.000000,,2013-11-13 14:32:00,
2013-11-13 10:12:00,75.0,63.0,-100.00,NNE,30,11.0,20.0,67,0.00,,,0.00,233.000000,,2013-11-13 15:12:00,
2013-11-13 10:22:00,75.0,63.0,-100.00,NNE,30,11.0,20.0,67,0.00,,,0.00,233.000000,,2013-11-13 15:22:00,
2013-11-13 10:33:00,75.0,63.0,-100.00,NNE,30,11.0,20.0,67,0.00,,,0.00,233.000000,,2013-11-13 15:33:00,
2013-11-13 11:13:00,77.0,63.0,-100.00,NE,35,11.0,22.0,61,0.00,,,0.00,320.000000,,2013-11-13 16:13:00,
2013-11-13 11:23:00,77.0,63.0,-100.00,NE,35,11.0,22.0,61,0.00,,,0.00,320.000000,,2013-11-13 16:23:00,
2013-11-13 11:33:00,77.0,63.0,-100.00,NE,35,11.0,22.0,61,0.00,,,0.00,320.000000,,2013-11-13 16:33:00,
2013-11-13 12:12:00,76.0,63.0,-100.00,NNE,31,11.0,23.0,65,0.00,,,0.00,439.000000,,2013-11-13 17:12:00,
2013-11-13 12:23:00,76.0,63.0,-100.00,NNE,31,11.0,23.0,65,0.00,,,0.00,439.000000,,2013-11-13 17:23:00,
2013-11-13 12:33:00,76.0,63.0,-100.00,NNE,31,11.0,23.0,65,0.00,,,0.00,439.000000,,2013-11-13 17:33:00,
2013-11-13 13:12:00,79.0,64.0,-100.00,NE,36,11.0,24.0,60,0.00,,,0.00,498.000000,,2013-11-13 18:12:00,
2013-11-13 13:23:00,79.0,64.0,-100.00,NE,36,11.0,24.0,60,0.00,,,0.00,498.000000,,2013-11-13 18:23:00,
2013-11-13 13:32:00,79.0,64.0,-100.00,NE,36,11.0,24.0,60,0.00,,,0.00,498.000000,,2013-11-13 18:32:00,
2013-11-13 14:11:00,78.0,63.0,-100.00,NE,34,12.0,22.0,61,0.00,,,0.00,498.000000,,2013-11-13 19:11:00,
2013-11-13 14:22:00,78.0,63.0,-100.00,NE,34,12.0,22.0,61,0.00,,,0.00,498.000000,,2013-11-13 19:22:00,
2013-11-13 14:32:00,78.0,63.0,-100.00,NE,34,12.0,22.0,61,0.00,,,0.00,498.000000,,2013-11-13 19:32:00,
2013-11-13 15:11:00,77.0,63.0,-100.00,NE,36,12.0,23.0,62,0.00,,,0.00,401.000000,,2013-11-13 20:11:00,
2013-11-13 15:22:00,77.0,63.0,-100.00,NE,36,12.0,23.0,62,0.00,,,0.00,401.000000,,2013-11-13 20:22:00,
2013-11-13 15:32:00,77.0,63.0,-100.00,NE,36,12.0,23.0,62,0.00,,,0.00,401.000000,,2013-11-13 20:32:00,
2013-11-13 16:12:00,76.0,65.0,-100.00,NE,40,12.0,25.0,69,0.00,,,0.00,183.000000,,2013-11-13 21:12:00,
2013-11-13 16:22:00,76.0,65.0,-100.00,NE,40,12.0,25.0,69,0.00,,,0.00,183.000000,,2013-11-13 21:22:00,
2013-11-13 16:33:00,76.0,65.0,-100.00,NE,40,12.0,25.0,69,0.00,,,0.00,183.000000,,2013-11-13 21:33:00,
2013-11-13 17:13:00,76.0,65.0,-100.00,NE,47,14.0,27.0,68,0.00,,,0.00,83.000000,,2013-11-13 22:13:00,
2013-11-13 17:23:00,76.0,65.0,-100.00,NE,47,14.0,27.0,68,0.00,,,0.00,83.000000,,2013-11-13 22:23:00,
2013-11-13 17:33:00,76.0,65.0,-100.00,NE,47,14.0,27.0,68,0.00,,,0.00,83.000000,,2013-11-13 22:33:00,
2013-11-13 18:11:00,75.0,64.0,-100.00,NE,43,14.0,26.0,68,0.00,,,0.00,13.000000,,2013-11-13 23:11:00,
2013-11-13 18:22:00,75.0,64.0,-100.00,NE,43,14.0,26.0,68,0.00,,,0.00,13.000000,,2013-11-13 23:22:00,
2013-11-13 18:32:00,75.0,64.0,-100.00,NE,43,14.0,26.0,68,0.00,,,0.00,13.000000,,2013-11-13 23:32:00,
2013-11-13 19:11:00,74.0,63.0,-100.00,NE,48,15.0,33.0,69,0.00,,,0.00,0.000000,,2013-11-14 00:11:00,
2013-11-13 19:22:00,74.0,63.0,-100.00,NE,48,15.0,33.0,69,0.00,,,0.00,0.000000,,2013-11-14 00:22:00,
2013-11-13 19:32:00,74.0,63.0,-100.00,NE,48,15.0,33.0,69,0.00,,,0.00,0.000000,,2013-11-14 00:32:00,
2013-11-13 20:11:00,73.0,63.0,-100.00,NE,50,18.0,36.0,72,0.00,,,0.00,0.000000,,2013-11-14 01:11:00,
2013-11-13 20:22:00,73.0,63.0,-100.00,NE,50,18.0,36.0,72,0.00,,,0.00,0.000000,,2013-11-14 01:22:00,
2013-11-13 20:32:00,73.0,63.0,-100.00,NE,50,18.0,36.0,72,0.00,,,0.00,0.000000,,2013-11-14 01:32:00,
2013-11-13 21:12:00,73.0,65.0,-100.00,NE,51,14.0,29.0,76,0.00,,,0.00,0.000000,,2013-11-14 02:12:00,
2013-11-13 21:22:00,73.0,65.0,-100.00,NE,51,14.0,29.0,76,0.00,,,0.00,0.000000,,2013-11-14 02:22:00,
2013-11-13 21:32:00,73.0,65.0,-100.00,NE,51,14.0,29.0,76,0.00,,,0.00,0.000000,,2013-11-14 02:32:00,
2013-11-13 22:12:00,72.0,63.0,-100.00,NE,56,15.0,27.0,74,0.00,,,0.00,0.000000,,2013-11-14 03:12:00,
2013-11-13 22:22:00,72.0,63.0,-100.00,NE,56,15.0,27.0,74,0.00,,,0.00,0.000000,,2013-11-14 03:22:00,
2013-11-13 22:34:00,72.0,63.0,-100.00,NE,56,15.0,27.0,74,0.00,,,0.00,0.000000,,2013-11-14 03:34:00,
2013-11-13 23:14:00,73.0,64.0,-100.00,ENE,57,14.0,33.0,73,0.00,,,0.00,0.000000,,2013-11-14 04:14:00,
2013-11-13 23:24:00,73.0,64.0,-100.00,ENE,57,14.0,33.0,73,0.00,,,0.00,0.000000,,2013-11-14 04:24:00,
2013-11-13 23:34:00,73.0,64.0,-100.00,ENE,57,14.0,33.0,73,0.00,,,0.00,0.000000,,2013-11-14 04:34:00,